Time;durP1;ratioP1;P1;durP2;ratioP2;P2;SDS_P1;SDS_P2;PMS_P1;PMS_P2;Temp;Humidity;BMP_temperature;BMP_pressure;BME280_temperature;BME280_humidity;BME280_pressure;Samples;Min_cycle;Max_cycle;Signal;HPM_P1;HPM_P2
2021/05/05 00:02:06;;;;;;;10.50;5.03;;;;;;;12.40;46.45;96108.42;1834682;77;26392;-86
2021/05/05 00:04:34;;;;;;;9.35;5.10;;;;;;;12.34;46.64;96104.00;1831551;76;25878;-86
2021/05/05 00:07:01;;;;;;;11.78;5.45;;;;;;;12.24;46.83;96103.36;1803031;77;28385;-86
2021/05/05 00:09:28;;;;;;;10.10;5.72;;;;;;;12.17;46.94;96099.23;1841291;77;25654;-86
2021/05/05 00:11:56;;;;;;;7.22;4.92;;;;;;;12.09;47.10;96094.24;1822922;77;25672;-86
2021/05/05 00:14:23;;;;;;;10.00;5.42;;;;;;;12.04;47.27;96095.55;1832330;77;25960;-86
2021/05/05 00:16:51;;;;;;;7.17;5.33;;;;;;;11.98;47.63;96093.30;1819304;77;25717;-86
2021/05/05 00:19:18;;;;;;;9.05;5.45;;;;;;;11.95;47.77;96093.02;1823115;77;28377;-86
2021/05/05 00:21:46;;;;;;;12.75;5.78;;;;;;;11.91;48.28;96094.05;1834956;77;26467;-86
2021/05/05 00:24:14;;;;;;;10.50;5.87;;;;;;;11.87;48.48;96086.95;1786358;79;25777;-86
2021/05/05 00:26:42;;;;;;;10.13;5.58;;;;;;;11.85;48.90;96083.69;1776270;79;26527;-86
2021/05/05 00:29:09;;;;;;;9.70;5.30;;;;;;;11.78;49.08;96083.06;1772429;80;25873;-86
2021/05/05 00:31:38;;;;;;;8.10;5.33;;;;;;;11.66;48.94;96080.16;1743981;81;27588;-86
2021/05/05 00:34:05;;;;;;;8.45;4.40;;;;;;;11.62;48.94;96076.31;1798645;79;26222;-87
2021/05/05 00:36:33;;;;;;;9.73;5.70;;;;;;;11.62;48.91;96070.38;1794653;79;25778;-85
2021/05/05 00:39:00;;;;;;;7.97;5.00;;;;;;;11.63;49.14;96078.77;1797388;78;25823;-86
2021/05/05 00:41:28;;;;;;;8.28;5.30;;;;;;;11.61;49.39;96074.14;1770652;78;26459;-85
2021/05/05 00:43:55;;;;;;;8.90;4.62;;;;;;;11.60;49.33;96075.73;1767449;80;28513;-87
2021/05/05 00:46:22;;;;;;;9.55;5.17;;;;;;;11.59;49.62;96077.66;1764105;78;25619;-87
2021/05/05 00:48:49;;;;;;;12.05;5.12;;;;;;;11.57;49.86;96068.97;1786239;79;25794;-86
2021/05/05 00:51:17;;;;;;;9.35;5.30;;;;;;;11.54;49.71;96064.06;1766601;78;25789;-86
2021/05/05 00:53:44;;;;;;;8.45;4.72;;;;;;;11.51;49.92;96057.80;1777027;78;25858;-86
2021/05/05 00:56:11;;;;;;;10.55;5.05;;;;;;;11.45;49.76;96054.22;1755079;78;28101;-87
2021/05/05 00:58:39;;;;;;;9.65;4.87;;;;;;;11.47;49.95;96058.03;1828982;77;25905;-87
2021/05/05 01:01:06;;;;;;;8.98;4.37;;;;;;;11.48;50.29;96060.98;1824235;77;25798;-86
2021/05/05 01:03:34;;;;;;;5.58;4.30;;;;;;;11.44;50.12;96055.82;1842581;77;25737;-87
2021/05/05 01:06:03;;;;;;;8.30;4.80;;;;;;;11.45;50.64;96058.81;1830589;77;26028;-86
2021/05/05 01:08:32;;;;;;;6.90;4.60;;;;;;;11.42;50.86;96051.19;1832427;77;27525;-86
2021/05/05 01:11:01;;;;;;;11.68;4.45;;;;;;;11.37;50.62;96048.41;1842506;77;25762;-85
2021/05/05 01:13:29;;;;;;;6.22;4.15;;;;;;;11.39;51.06;96044.93;1842703;77;25753;-86
2021/05/05 01:15:57;;;;;;;8.48;4.08;;;;;;;11.37;50.91;96049.76;1834399;77;25782;-85
2021/05/05 01:18:24;;;;;;;6.67;4.12;;;;;;;11.39;51.14;96048.98;1797006;77;25930;-85
2021/05/05 01:20:58;;;;;;;7.83;4.25;;;;;;;11.35;51.18;96043.25;1835782;77;28437;-86
2021/05/05 01:23:26;;;;;;;7.67;4.40;;;;;;;11.34;51.10;96040.30;1824659;77;25710;-86
2021/05/05 01:25:54;;;;;;;8.13;4.30;;;;;;;11.36;50.92;96037.31;1837570;77;25759;-86
2021/05/05 01:28:23;;;;;;;7.58;4.62;;;;;;;11.39;50.91;96038.99;1842791;77;26527;-85
2021/05/05 01:30:50;;;;;;;8.78;4.12;;;;;;;11.39;50.95;96034.12;1803732;77;25700;-85
2021/05/05 01:33:19;;;;;;;6.67;4.12;;;;;;;11.38;50.79;96029.25;1823617;77;26672;-87
2021/05/05 01:35:49;;;;;;;7.33;4.17;;;;;;;11.40;50.81;96031.70;1787235;77;26058;-86
2021/05/05 01:38:19;;;;;;;7.60;4.78;;;;;;;11.44;50.73;96027.45;1839285;77;25699;-86
2021/05/05 01:40:46;;;;;;;5.47;4.08;;;;;;;11.45;50.84;96028.55;1828339;77;25538;-86
2021/05/05 01:43:14;;;;;;;9.98;4.90;;;;;;;11.46;50.75;96024.79;1805210;77;25446;-86
2021/05/05 01:45:42;;;;;;;6.12;3.70;;;;;;;11.48;50.95;96028.56;1817348;77;27571;-86
2021/05/05 01:48:10;;;;;;;8.35;4.47;;;;;;;11.46;51.28;96019.91;1794988;77;25810;-86
2021/05/05 01:50:38;;;;;;;4.72;3.58;;;;;;;11.42;51.48;96025.00;1787374;77;25282;-86
2021/05/05 01:53:06;;;;;;;7.42;3.87;;;;;;;11.39;51.56;96023.31;1831223;77;25810;-86
2021/05/05 01:55:33;;;;;;;6.80;4.22;;;;;;;11.35;51.69;96020.85;1829300;77;25830;-86
2021/05/05 01:58:01;;;;;;;5.67;3.75;;;;;;;11.34;51.90;96015.98;1832752;77;28569;-86
2021/05/05 02:00:31;;;;;;;5.33;4.10;;;;;;;11.31;52.18;96021.05;1820224;77;25833;-86
2021/05/05 02:02:58;;;;;;;6.22;3.92;;;;;;;11.28;52.36;96020.19;1842783;77;25810;-86
2021/05/05 02:05:26;;;;;;;4.47;3.72;;;;;;;11.26;52.59;96015.57;1834051;77;25651;-86
2021/05/05 02:07:53;;;;;;;6.53;3.85;;;;;;;11.22;52.54;96018.50;1829014;77;25794;-86
2021/05/05 02:10:21;;;;;;;5.10;3.37;;;;;;;11.21;52.70;96016.87;1836524;77;27482;-86
2021/05/05 02:12:49;;;;;;;4.67;3.45;;;;;;;11.19;53.07;96016.58;1826272;77;25766;-86
2021/05/05 02:15:19;;;;;;;7.33;3.92;;;;;;;11.13;53.17;96016.20;1842776;77;25659;-86
2021/05/05 02:17:51;;;;;;;6.85;3.60;;;;;;;11.08;53.08;96017.50;1817984;77;25755;-86
2021/05/05 02:20:23;;;;;;;6.60;3.50;;;;;;;11.06;53.64;96010.18;1796741;77;25901;-85
2021/05/05 02:22:50;;;;;;;5.43;4.00;;;;;;;11.01;53.62;96011.44;1828756;77;28385;-86
2021/05/05 02:25:18;;;;;;;5.33;3.47;;;;;;;10.99;54.05;96014.13;1795202;77;25955;-85
2021/05/05 02:27:46;;;;;;;5.35;3.70;;;;;;;10.93;53.39;96009.17;1842816;77;25759;-85
2021/05/05 02:30:14;;;;;;;6.92;3.90;;;;;;;10.96;53.95;96001.94;1842828;77;25794;-86
2021/05/05 02:32:44;;;;;;;6.55;3.72;;;;;;;10.95;54.18;96009.75;1830974;77;25871;-86
2021/05/05 02:35:13;;;;;;;11.22;3.75;;;;;;;10.96;54.07;96003.28;1810802;77;28461;-85
2021/05/05 02:37:43;;;;;;;7.17;3.90;;;;;;;10.97;54.10;96002.22;1803664;77;26182;-85
2021/05/05 02:40:12;;;;;;;7.62;4.00;;;;;;;11.01;53.61;96011.44;1822258;77;25800;-85
2021/05/05 02:42:40;;;;;;;5.72;3.40;;;;;;;11.06;53.57;96003.42;1826123;77;26374;-85
2021/05/05 02:45:09;;;;;;;8.53;3.52;;;;;;;11.09;53.30;95993.48;1819948;77;25672;-85
2021/05/05 02:47:36;;;;;;;3.70;3.20;;;;;;;11.15;53.14;95995.70;1842785;77;28538;-85
2021/05/05 02:50:06;;;;;;;5.72;3.40;;;;;;;11.22;52.58;95995.55;1817973;77;26007;-85
2021/05/05 02:52:33;;;;;;;5.80;3.05;;;;;;;11.30;52.30;95996.45;1823882;77;25915;-85
2021/05/05 02:55:03;;;;;;;7.80;3.70;;;;;;;11.37;52.25;95997.08;1832952;77;25770;-84
2021/05/05 02:57:30;;;;;;;7.75;3.70;;;;;;;11.42;52.05;96007.97;1809697;77;25823;-85
2021/05/05 02:59:57;;;;;;;5.15;3.60;;;;;;;11.47;51.62;95995.88;1836623;77;28461;-85
2021/05/05 03:02:24;;;;;;;6.60;3.40;;;;;;;11.52;51.42;95994.58;1828515;77;25687;-85
2021/05/05 03:04:53;;;;;;;5.05;3.42;;;;;;;11.58;51.31;95995.47;1808838;77;25718;-85
2021/05/05 03:07:20;;;;;;;8.40;3.52;;;;;;;11.62;51.17;95999.28;1807048;77;26962;-85
2021/05/05 03:09:48;;;;;;;4.37;3.67;;;;;;;11.64;51.25;95994.45;1825829;77;25656;-85
2021/05/05 03:12:15;;;;;;;4.83;3.10;;;;;;;11.67;51.04;95995.30;1805165;77;27527;-85
2021/05/05 03:14:43;;;;;;;4.35;3.17;;;;;;;11.69;50.98;95993.99;1787219;77;25746;-85
2021/05/05 03:17:10;;;;;;;6.40;3.65;;;;;;;11.69;51.25;95996.69;1798255;77;25782;-85
2021/05/05 03:19:37;;;;;;;7.80;3.50;;;;;;;11.69;50.96;95994.52;1842719;77;25970;-85
2021/05/05 03:22:05;;;;;;;8.08;4.05;;;;;;;11.72;50.71;95992.64;1842725;77;25773;-86
2021/05/05 03:24:32;;;;;;;5.15;3.42;;;;;;;11.76;50.47;95997.34;1842855;77;28484;-85
2021/05/05 03:26:59;;;;;;;7.58;3.15;;;;;;;11.77;50.58;95994.92;1841345;77;26161;-85
2021/05/05 03:29:26;;;;;;;4.60;3.00;;;;;;;11.77;50.79;95990.05;1801780;77;25770;-85
2021/05/05 03:31:54;;;;;;;6.20;3.60;;;;;;;11.76;50.59;95989.23;1823966;77;26503;-86
2021/05/05 03:34:21;;;;;;;6.10;3.87;;;;;;;11.77;50.45;95984.11;1842671;77;26316;-85
2021/05/05 03:36:49;;;;;;;8.30;3.80;;;;;;;11.79;50.22;95983.33;1821172;77;27542;-85
2021/05/05 03:39:16;;;;;;;7.30;3.60;;;;;;;11.82;50.09;95988.23;1826196;77;25643;-85
2021/05/05 03:41:44;;;;;;;5.95;3.55;;;;;;;11.87;49.89;95983.39;1825339;77;25652;-84
2021/05/05 03:44:11;;;;;;;4.65;3.17;;;;;;;11.89;50.14;95990.19;1803889;78;26729;-85
2021/05/05 03:46:38;;;;;;;8.33;3.35;;;;;;;11.88;50.86;95991.79;1813807;79;25738;-85
2021/05/05 03:49:07;;;;;;;7.58;3.80;;;;;;;11.83;51.10;95981.72;1785947;79;28443;-85
2021/05/05 03:51:34;;;;;;;4.45;3.22;;;;;;;11.86;51.08;95982.58;1807109;79;26281;-85
2021/05/05 03:54:02;;;;;;;4.08;3.17;;;;;;;11.89;51.07;95987.48;1813867;79;25710;-85
2021/05/05 03:56:30;;;;;;;4.35;3.20;;;;;;;11.94;50.94;95985.38;1813828;79;25818;-85
2021/05/05 03:58:57;;;;;;;5.47;3.58;;;;;;;11.99;50.97;95986.77;1813768;79;25284;-85
2021/05/05 04:01:24;;;;;;;7.97;3.83;;;;;;;11.98;51.43;95988.38;1792885;78;27480;-85
2021/05/05 04:03:52;;;;;;;6.58;3.40;;;;;;;11.93;50.77;95985.63;1797281;79;25724;-86
2021/05/05 04:06:19;;;;;;;6.40;4.17;;;;;;;11.93;50.81;95985.63;1795265;79;25793;-85
2021/05/05 04:08:46;;;;;;;10.13;3.80;;;;;;;11.95;50.94;95990.26;1777774;79;25880;-86
2021/05/05 04:11:13;;;;;;;7.03;4.70;;;;;;;11.95;51.06;95987.55;1813842;78;25657;-85
2021/05/05 04:13:41;;;;;;;8.60;4.78;;;;;;;11.94;51.46;95984.56;1772793;79;27548;-85
2021/05/05 04:16:08;;;;;;;9.73;4.83;;;;;;;11.90;51.67;95981.01;1798198;79;25810;-85
2021/05/05 04:18:36;;;;;;;8.45;4.70;;;;;;;11.88;52.07;95981.80;1792892;79;25538;-84
2021/05/05 04:21:07;;;;;;;6.70;4.70;;;;;;;11.87;52.27;95987.45;1813777;79;25887;-86
2021/05/05 04:23:35;;;;;;;9.30;4.87;;;;;;;11.86;52.53;95983.11;1792964;79;25762;-86
2021/05/05 04:26:04;;;;;;;8.35;4.53;;;;;;;11.83;52.29;95985.78;1813815;79;27554;-86
2021/05/05 04:28:32;;;;;;;7.67;5.08;;;;;;;11.84;52.37;95985.25;1779169;78;25795;-86
2021/05/05 04:30:59;;;;;;;7.00;4.40;;;;;;;11.85;52.59;95988.23;1735826;80;25892;-86
2021/05/05 04:33:27;;;;;;;9.23;5.42;;;;;;;11.82;53.19;95992.28;1751251;81;26788;-86
2021/05/05 04:35:54;;;;;;;11.78;5.35;;;;;;;11.77;53.10;95988.69;1749229;81;26339;-86
2021/05/05 04:38:21;;;;;;;11.85;4.72;;;;;;;11.77;53.69;95997.63;1751225;81;27777;-85
2021/05/05 04:40:49;;;;;;;10.08;4.70;;;;;;;11.69;53.51;95989.94;1754546;81;25869;-86
2021/05/05 04:43:16;;;;;;;11.78;5.28;;;;;;;11.70;53.79;95990.22;1756322;79;25785;-85
2021/05/05 04:45:44;;;;;;;14.20;5.70;;;;;;;11.72;54.25;95994.00;1842605;77;26794;-86
2021/05/05 04:48:12;;;;;;;9.90;5.55;;;;;;;11.70;54.29;95987.52;1813711;77;25809;-86
2021/05/05 04:50:39;;;;;;;9.60;5.28;;;;;;;11.73;54.20;95994.28;1825706;77;27544;-86
2021/05/05 04:53:08;;;;;;;7.67;4.70;;;;;;;11.73;54.32;95995.63;1839322;77;25799;-86
2021/05/05 04:55:36;;;;;;;10.30;4.30;;;;;;;11.73;54.27;95992.93;1823413;77;25715;-86
2021/05/05 04:58:03;;;;;;;12.20;4.70;;;;;;;11.73;54.25;95997.80;1841556;77;26194;-85
2021/05/05 05:00:30;;;;;;;10.15;4.85;;;;;;;11.72;53.81;95989.41;1820774;77;25754;-85
2021/05/05 05:02:58;;;;;;;10.35;5.12;;;;;;;11.78;54.15;95992.50;1806408;77;28453;-86
2021/05/05 05:05:25;;;;;;;10.28;4.62;;;;;;;11.80;54.26;95993.60;1801627;77;26344;-86
2021/05/05 05:07:54;;;;;;;10.58;5.20;;;;;;;11.85;54.16;95994.45;1810634;77;26423;-85
2021/05/05 05:10:22;;;;;;;11.38;4.55;;;;;;;11.92;54.48;95981.30;1830534;77;25890;-86
2021/05/05 05:12:49;;;;;;;8.90;4.47;;;;;;;11.97;54.79;95987.55;1826418;77;25739;-86
2021/05/05 05:15:16;;;;;;;11.18;4.35;;;;;;;12.02;54.51;95993.56;1797150;77;27559;-86
2021/05/05 05:17:44;;;;;;;10.05;5.37;;;;;;;12.09;54.33;95989.58;1810954;77;25745;-86
2021/05/05 05:20:12;;;;;;;11.60;6.12;;;;;;;12.17;54.28;95993.20;1817921;77;25800;-85
2021/05/05 05:22:39;;;;;;;11.83;6.25;;;;;;;12.25;53.95;95995.96;1821240;77;25820;-85
2021/05/05 05:25:10;;;;;;;15.45;7.33;;;;;;;12.31;54.32;95994.14;1805712;77;25565;-85
2021/05/05 05:27:38;;;;;;;21.82;8.33;;;;;;;12.32;54.32;95992.50;1803964;77;27619;-86
2021/05/05 05:30:08;;;;;;;19.15;8.65;;;;;;;12.37;53.89;95991.21;1808092;77;25712;-86
2021/05/05 05:32:36;;;;;;;16.10;7.33;;;;;;;12.43;53.84;95994.26;1816662;77;26235;-86
2021/05/05 05:35:05;;;;;;;11.80;6.35;;;;;;;12.50;53.59;95996.73;1830374;77;26757;-85
2021/05/05 05:37:32;;;;;;;12.18;5.83;;;;;;;12.57;53.55;95996.79;1809477;77;25322;-85
2021/05/05 05:40:00;;;;;;;12.63;5.28;;;;;;;12.65;53.74;95987.94;1802762;77;27486;-86
2021/05/05 05:42:27;;;;;;;6.40;4.35;;;;;;;12.72;53.38;95985.81;1821059;77;25862;-86
2021/05/05 05:44:55;;;;;;;14.40;4.37;;;;;;;12.81;52.98;95992.37;1830107;77;25693;-86
2021/05/05 05:47:23;;;;;;;8.05;4.30;;;;;;;12.90;53.10;95991.66;1816798;77;25821;-86
2021/05/05 05:49:51;;;;;;;5.42;3.80;;;;;;;12.99;52.60;95993.33;1837691;77;25871;-86
2021/05/05 05:52:18;;;;;;;10.60;3.70;;;;;;;13.10;52.24;95990.97;1824948;77;28408;-87
2021/05/05 05:54:46;;;;;;;5.10;3.92;;;;;;;13.21;51.88;95997.29;1803564;77;25728;-86
2021/05/05 05:57:13;;;;;;;7.00;3.92;;;;;;;13.29;51.92;95996.25;1843432;77;25684;-85
2021/05/05 05:59:42;;;;;;;9.18;5.47;;;;;;;13.39;51.41;95999.58;1803636;77;25824;-86
2021/05/05 06:02:11;;;;;;;11.95;5.92;;;;;;;13.46;50.94;95991.19;1809514;77;26228;-85
2021/05/05 06:04:38;;;;;;;13.05;5.90;;;;;;;13.58;50.71;95987.73;1830807;77;27478;-87
2021/05/05 06:07:06;;;;;;;12.93;6.60;;;;;;;13.68;50.62;95991.83;1834154;77;25985;-84
2021/05/05 06:09:33;;;;;;;17.62;5.47;;;;;;;13.76;50.28;95983.20;1809320;77;25767;-85
2021/05/05 06:12:01;;;;;;;7.92;4.40;;;;;;;13.89;50.74;95984.03;1838593;77;26041;-85
2021/05/05 06:14:28;;;;;;;10.82;4.10;;;;;;;14.00;50.04;95974.06;1826346;77;25671;-85
2021/05/05 06:16:56;;;;;;;6.80;3.77;;;;;;;14.11;49.61;95972.18;1832719;77;28473;-85
2021/05/05 06:19:23;;;;;;;6.45;3.62;;;;;;;14.20;49.27;95964.59;1822924;77;26399;-84
2021/05/05 06:21:50;;;;;;;9.18;4.05;;;;;;;14.29;49.07;95962.16;1819228;77;25801;-84
2021/05/05 06:24:18;;;;;;;6.78;3.37;;;;;;;14.37;48.75;95967.05;1842535;77;25813;-84
2021/05/05 06:26:45;;;;;;;7.58;3.62;;;;;;;14.46;48.32;95968.19;1824918;77;25824;-85
2021/05/05 06:29:12;;;;;;;6.30;3.20;;;;;;;14.55;48.02;95958.41;1807246;77;28452;-84
2021/05/05 06:31:40;;;;;;;5.45;3.00;;;;;;;14.65;47.68;95952.16;1807698;77;25746;-85
2021/05/05 06:34:08;;;;;;;6.78;2.98;;;;;;;14.69;47.40;95954.08;1842539;77;25548;-84
2021/05/05 06:36:35;;;;;;;4.47;3.15;;;;;;;14.76;47.20;95957.31;1842636;77;26843;-86
2021/05/05 06:39:07;;;;;;;3.77;2.80;;;;;;;14.78;46.98;95949.71;1822365;77;26406;-85
2021/05/05 06:41:36;;;;;;;;;;;;;;;14.85;46.56;95945.92;1790709;77;27723;-85
2021/05/05 06:44:04;;;;;;;7.15;3.67;;;;;;;14.88;46.06;95946.70;1820257;77;25736;-84
2021/05/05 06:46:33;;;;;;;9.25;4.28;;;;;;;14.91;46.66;95939.37;1845232;77;26181;-84
2021/05/05 06:49:01;;;;;;;9.13;4.03;;;;;;;14.99;46.81;95947.78;1818038;77;26766;-85
2021/05/05 06:51:29;;;;;;;5.55;3.60;;;;;;;15.03;46.92;95933.92;1822112;77;25883;-85
2021/05/05 06:53:56;;;;;;;9.78;4.15;;;;;;;15.09;46.65;95938.81;1837013;77;28440;-84
2021/05/05 06:56:23;;;;;;;7.10;3.75;;;;;;;15.16;46.64;95935.25;1803935;77;26036;-85
2021/05/05 06:58:51;;;;;;;7.90;3.77;;;;;;;15.21;46.34;95928.45;1851708;77;25794;-85
2021/05/05 07:01:18;;;;;;;5.15;3.45;;;;;;;15.30;46.20;95926.79;1851692;77;25827;-85
2021/05/05 07:03:46;;;;;;;7.90;3.45;;;;;;;15.37;45.88;95923.22;1851604;77;25668;-84
2021/05/05 07:06:13;;;;;;;8.83;4.08;;;;;;;15.43;45.68;95923.48;1832579;77;27515;-85
2021/05/05 07:08:41;;;;;;;6.25;3.87;;;;;;;15.50;45.65;95915.83;1844192;77;25734;-85
2021/05/05 07:11:08;;;;;;;4.33;3.33;;;;;;;15.59;45.31;95912.55;1837599;77;25709;-85
2021/05/05 07:13:36;;;;;;;7.65;3.77;;;;;;;15.69;45.31;95906.55;1840037;77;26004;-85
2021/05/05 07:16:04;;;;;;;6.53;4.12;;;;;;;15.77;45.01;95903.77;1826855;77;25798;-85
2021/05/05 07:18:31;;;;;;;11.78;4.90;;;;;;;15.87;44.79;95905.07;1851540;77;27693;-85
2021/05/05 07:20:58;;;;;;;9.60;6.10;;;;;;;15.97;44.60;95900.92;1850686;77;25756;-85
2021/05/05 07:23:29;;;;;;;10.90;6.58;;;;;;;16.08;44.42;95896.22;1828971;77;25772;-85
2021/05/05 07:25:57;;;;;;;10.70;6.60;;;;;;;16.16;44.28;95893.73;1851577;77;26038;-85
2021/05/05 07:28:24;;;;;;;11.83;6.15;;;;;;;16.26;43.98;95878.41;1812168;77;25734;-86
2021/05/05 07:30:52;;;;;;;13.78;8.53;;;;;;;16.28;43.35;95881.67;1832120;77;27469;-86
2021/05/05 07:33:19;;;;;;;12.70;7.90;;;;;;;16.20;43.60;95879.80;1824592;77;25802;-87
2021/05/05 07:35:51;;;;;;;16.37;9.00;;;;;;;16.26;43.28;95868.89;1851665;77;25826;-87
2021/05/05 07:38:31;;;;;;;12.55;6.22;;;;;;;16.25;43.92;95869.98;1850212;77;25938;-87
2021/05/05 07:46:28;;;;;;;10.78;5.62;;;;;;;16.46;43.03;95861.91;1851605;77;25286;-86
2021/05/05 07:48:56;;;;;;;12.13;6.03;;;;;;;16.37;43.10;95857.63;1831671;77;25738;-86
2021/05/05 07:51:24;;;;;;;10.63;6.20;;;;;;;16.37;43.46;95858.17;1818061;77;25827;-87
2021/05/05 07:53:52;;;;;;;11.22;5.37;;;;;;;16.43;43.92;95843.41;1818121;77;25777;-87
2021/05/05 07:56:20;;;;;;;12.10;5.37;;;;;;;16.55;43.89;95842.47;1818083;77;27493;-87
2021/05/05 07:58:48;;;;;;;8.23;4.90;;;;;;;16.66;44.11;95850.05;1818137;77;26273;-87
2021/05/05 08:01:17;;;;;;;9.28;4.60;;;;;;;16.80;43.96;95841.44;1819318;77;25691;-87
2021/05/05 08:03:44;;;;;;;10.58;4.83;;;;;;;17.02;44.13;95838.23;1843228;77;25815;-88
2021/05/05 08:06:12;;;;;;;10.85;4.80;;;;;;;17.21;43.86;95835.00;1851580;77;25797;-88
2021/05/05 08:08:40;;;;;;;9.63;4.20;;;;;;;17.31;43.38;95837.59;1818087;77;28387;-87
2021/05/05 08:11:08;;;;;;;5.53;3.70;;;;;;;17.32;43.27;95831.59;1818099;77;26113;-88
2021/05/05 08:13:35;;;;;;;8.33;3.95;;;;;;;17.41;42.86;95821.09;1821391;76;25864;-88
2021/05/05 08:16:03;;;;;;;7.42;3.67;;;;;;;17.40;42.94;95817.29;1821995;77;26771;-87
2021/05/05 08:18:31;;;;;;;6.60;3.70;;;;;;;17.48;42.64;95816.11;1834650;77;25793;-87
2021/05/05 08:21:00;;;;;;;6.05;3.65;;;;;;;17.60;42.67;95809.67;1827151;77;27467;-87
2021/05/05 08:23:29;;;;;;;5.33;3.30;;;;;;;17.64;42.62;95807.98;1833195;77;25692;-87
2021/05/05 08:25:56;;;;;;;6.40;2.98;;;;;;;17.79;42.42;95798.77;1830806;77;25820;-87
2021/05/05 08:28:24;;;;;;;5.65;3.80;;;;;;;17.97;41.96;95799.33;1832765;77;26402;-87
2021/05/05 08:30:52;;;;;;;5.50;3.50;;;;;;;18.13;41.77;95794.41;1837480;77;25805;-87
2021/05/05 08:33:20;;;;;;;6.45;3.00;;;;;;;18.30;41.78;95796.05;1819240;77;27487;-87
2021/05/05 08:35:48;;;;;;;8.63;3.75;;;;;;;18.51;41.46;95790.22;1837981;76;25915;-87
2021/05/05 08:38:15;;;;;;;4.55;3.00;;;;;;;18.58;40.89;95786.59;1821591;76;25712;-87
2021/05/05 08:40:43;;;;;;;5.90;2.98;;;;;;;18.67;40.87;95782.85;1841436;77;25833;-87
2021/05/05 08:43:10;;;;;;;5.40;3.30;;;;;;;18.77;40.85;95776.38;1818356;77;25803;-88
2021/05/05 08:45:38;;;;;;;4.45;3.00;;;;;;;18.86;40.70;95769.64;1838836;76;27466;-87
2021/05/05 08:48:08;;;;;;;4.03;3.05;;;;;;;19.10;40.86;95768.06;1810869;77;25766;-86
2021/05/05 08:50:39;;;;;;;5.25;2.75;;;;;;;19.43;41.13;95760.80;1801056;77;25816;-87
2021/05/05 08:53:08;;;;;;;4.03;2.80;;;;;;;19.83;39.90;95760.19;1839661;77;25828;-87
2021/05/05 08:55:36;;;;;;;5.65;2.67;;;;;;;20.07;39.29;95753.30;1833857;77;25792;-87
2021/05/05 08:58:05;;;;;;;5.72;2.70;;;;;;;20.27;38.74;95753.93;1799657;77;28613;-87
2021/05/05 09:00:39;;;;;;;6.17;3.12;;;;;;;20.39;38.73;95748.16;1822381;77;25802;-88
2021/05/05 09:03:08;;;;;;;8.60;2.72;;;;;;;20.48;38.69;95745.45;1829835;77;25812;-87
2021/05/05 09:05:58;;;;;;;5.15;2.65;;;;;;;20.61;38.70;95732.78;1814898;77;26691;-87
2021/05/05 09:08:28;;;;;;;4.87;3.83;;;;;;;20.68;38.23;95732.56;1818699;77;25768;-87
2021/05/05 09:11:11;;;;;;;7.30;3.75;;;;;;;20.58;37.99;95726.55;1815055;77;27461;-87
2021/05/05 09:13:55;;;;;;;4.45;3.27;;;;;;;20.65;37.87;95718.70;1812535;77;26305;-87
2021/05/05 09:16:30;;;;;;;8.20;3.17;;;;;;;20.80;37.63;95720.99;1816612;77;25680;-88
2021/05/05 09:19:05;;;;;;;11.95;7.90;;;;;;;20.79;36.99;95711.95;1826021;77;26019;-87
2021/05/05 09:21:45;;;;;;;4.03;2.90;;;;;;;20.77;37.40;95705.20;1823342;77;25728;-87
2021/05/05 09:24:29;;;;;;;4.80;2.90;;;;;;;20.94;36.95;95698.95;1836128;77;27480;-87
2021/05/05 09:27:02;;;;;;;10.43;5.70;;;;;;;21.04;36.39;95694.53;1842379;77;25670;-88
2021/05/05 09:29:44;;;;;;;6.50;3.95;;;;;;;21.26;36.21;95688.14;1783080;77;25943;-88
2021/05/05 09:32:12;;;;;;;;;;;;;;;21.36;36.32;95687.86;1849961;77;26730;-87
2021/05/05 09:34:42;;;;;;;5.67;3.08;;;;;;;21.35;36.53;95687.05;1841727;77;51461;-87
2021/05/05 09:37:12;;;;;;;15.08;8.25;;;;;;;21.39;36.40;95680.33;1825981;77;27489;-86
2021/05/05 09:39:41;;;;;;;4.95;2.62;;;;;;;21.35;36.44;95675.27;1824920;77;25706;-87
2021/05/05 09:42:23;;;;;;;5.00;2.75;;;;;;;21.37;36.08;95667.52;1809294;77;25642;-86
2021/05/05 09:45:03;;;;;;;5.90;2.58;;;;;;;21.33;36.17;95665.16;1826544;77;25825;-88
2021/05/05 09:47:54;;;;;;;5.50;2.40;;;;;;;21.14;35.94;95664.05;1851512;77;25445;-88
2021/05/05 09:50:39;;;;;;;6.00;2.77;;;;;;;20.95;36.26;95665.72;1840708;77;28523;-88
2021/05/05 09:53:29;;;;;;;4.15;2.27;;;;;;;21.02;36.48;95667.41;1819758;77;25795;-87
2021/05/05 09:56:05;;;;;;;3.35;2.15;;;;;;;21.12;36.79;95668.51;1833733;77;25828;-87
2021/05/05 09:58:42;;;;;;;4.25;2.17;;;;;;;21.06;36.59;95657.43;1848070;77;26483;-88
2021/05/05 10:01:13;;;;;;;4.25;1.92;;;;;;;20.96;36.52;95655.00;1840953;77;25717;-87
2021/05/05 10:03:53;;;;;;;3.13;2.27;;;;;;;20.87;36.60;95648.69;1826243;77;27287;-87
2021/05/05 10:06:31;;;;;;;3.20;2.22;;;;;;;20.77;36.35;95654.47;1819901;77;25908;-88
2021/05/05 10:09:06;;;;;;;6.17;2.30;;;;;;;20.70;36.55;95647.26;1851607;77;25827;-87
2021/05/05 10:11:40;;;;;;;5.53;2.52;;;;;;;20.79;36.76;95641.23;1830624;77;26340;-87
2021/05/05 10:14:13;;;;;;;4.85;2.30;;;;;;;20.91;36.83;95636.50;1822044;77;25822;-87
2021/05/05 10:16:48;;;;;;;5.12;1.98;;;;;;;20.87;36.56;95630.86;1851554;77;27473;-86
2021/05/05 10:19:26;;;;;;;3.72;1.95;;;;;;;20.93;36.15;95628.20;1827800;77;26123;-87
2021/05/05 10:22:00;;;;;;;5.50;2.50;;;;;;;20.94;35.55;95620.22;1829101;77;25811;-86
2021/05/05 10:24:32;;;;;;;3.60;2.62;;;;;;;20.98;35.58;95624.51;1847181;77;26881;-87
2021/05/05 10:27:00;;;;;;;6.37;2.65;;;;;;;20.88;35.84;95618.77;1851622;77;25712;-87
2021/05/05 10:29:31;;;;;;;3.58;2.50;;;;;;;20.79;35.77;95623.41;1851634;77;27469;-87
2021/05/05 10:32:03;;;;;;;3.77;2.50;;;;;;;20.88;35.89;95616.03;1851446;77;25666;-87
2021/05/05 10:34:30;;;;;;;5.87;2.83;;;;;;;20.83;36.24;95614.80;1851751;77;25742;-87
2021/05/05 10:37:04;;;;;;;5.15;2.40;;;;;;;20.83;36.08;95617.53;1837963;77;25885;-84
2021/05/05 10:39:35;;;;;;;5.47;2.50;;;;;;;20.93;35.91;95622.72;1843885;77;25870;-85
2021/05/05 10:42:17;;;;;;;3.95;2.60;;;;;;;20.97;35.66;95617.41;1838122;77;27455;-87
2021/05/05 10:44:58;;;;;;;5.83;2.55;;;;;;;21.05;35.86;95607.80;1839906;76;25742;-87
2021/05/05 10:47:35;;;;;;;7.58;2.50;;;;;;;20.84;35.57;95617.22;1816416;77;25736;-86
2021/05/05 10:50:07;;;;;;;5.58;2.67;;;;;;;20.68;36.10;95617.98;1840431;77;26760;-89
2021/05/05 10:52:53;;;;;;;6.83;2.92;;;;;;;20.63;36.16;95609.92;1819482;77;25694;-90
2021/05/05 10:55:33;;;;;;;4.97;2.47;;;;;;;20.66;36.57;95605.15;1837356;77;26730;-87
2021/05/05 10:58:18;;;;;;;5.00;2.22;;;;;;;20.84;36.28;95604.08;1826390;77;25876;-85
2021/05/05 11:00:55;;;;;;;5.37;2.20;;;;;;;21.23;35.71;95601.81;1819207;77;25703;-84
2021/05/05 11:03:49;;;;;;;5.12;2.22;;;;;;;21.50;34.45;95608.88;1832325;77;25832;-86
2021/05/05 11:06:37;;;;;;;6.72;2.58;;;;;;;21.64;34.11;95613.64;1849621;77;25744;-87
2021/05/05 11:09:17;;;;;;;6.47;2.65;;;;;;;21.79;33.74;95611.77;1819123;77;27955;-86
2021/05/05 11:11:50;;;;;;;7.80;2.10;;;;;;;21.90;33.39;95613.03;1832627;77;25806;-84
2021/05/05 11:14:38;;;;;;;2.27;1.90;;;;;;;22.05;33.15;95610.36;1851673;77;25863;-85
2021/05/05 11:17:05;;;;;;;2.62;1.90;;;;;;;22.41;32.99;95611.28;1853656;77;26772;-85
2021/05/05 11:19:42;;;;;;;2.72;1.65;;;;;;;22.79;32.16;95596.73;1819634;77;26016;-86
2021/05/05 11:22:27;;;;;;;3.58;2.25;;;;;;;23.27;31.71;95592.11;1839573;77;27697;-86
2021/05/05 11:24:54;;;;;;;3.98;2.20;;;;;;;23.27;31.71;95592.11;1826172;77;25704;-86
2021/05/05 11:27:51;;;;;;;5.20;1.90;;;;;;;23.44;31.20;95593.89;1823644;77;25701;-88
2021/05/05 11:30:42;;;;;;;5.80;2.60;;;;;;;23.47;31.33;95602.30;1827129;77;25859;-89
2021/05/05 11:33:11;;;;;;;4.90;2.10;;;;;;;23.54;31.09;95600.42;1824714;76;26146;-87
2021/05/05 11:35:41;;;;;;;4.00;1.98;;;;;;;23.64;30.80;95591.73;1820082;77;27673;-87
2021/05/05 11:38:19;;;;;;;4.08;2.25;;;;;;;23.80;30.79;95597.40;1823293;77;26053;-87
2021/05/05 11:40:59;;;;;;;3.72;2.27;;;;;;;23.79;30.09;95591.08;1821006;77;25843;-85
2021/05/05 11:43:31;;;;;;;4.62;2.05;;;;;;;23.63;29.71;95595.06;1816670;77;25809;-87
2021/05/05 11:46:02;;;;;;;5.70;2.22;;;;;;;23.32;29.56;95582.25;1832050;77;25761;-85
2021/05/05 11:48:35;;;;;;;2.60;1.90;;;;;;;23.21;29.53;95597.56;1836279;77;28855;-88
2021/05/05 11:51:05;;;;;;;3.72;1.60;;;;;;;23.17;29.42;95598.83;1831684;77;25776;-87